Time;durP1;ratioP1;P1;durP2;ratioP2;P2;SDS_P1;SDS_P2;PMS_P1;PMS_P2;Temp;Humidity;BMP_temperature;BMP_pressure;BME280_temperature;BME280_humidity;BME280_pressure;Samples;Min_cycle;Max_cycle;Signal;HPM_P1;HPM_P2
2023/06/10 00:02:16;;;;;;;17.58;12.32;;;;;;;20.61;70.09;101405.47;5046239;28;20037;-74
2023/06/10 00:04:43;;;;;;;13.95;11.45;;;;;;;20.63;70.01;101400.78;5042791;28;21071;-74
2023/06/10 00:07:10;;;;;;;14.57;12.35;;;;;;;20.46;71.56;101400.66;5066688;28;20071;-75
2023/06/10 00:09:39;;;;;;;14.63;11.23;;;;;;;20.61;71.06;101401.91;5053779;28;20136;-74
2023/06/10 00:12:06;;;;;;;16.65;12.07;;;;;;;20.65;70.06;101403.31;5042946;28;20102;-74
2023/06/10 00:14:35;;;;;;;13.00;11.50;;;;;;;20.52;70.87;101410.91;5022503;28;20588;-74
2023/06/10 00:17:00;;;;;;;16.20;12.55;;;;;;;20.47;71.59;101408.66;5035491;28;20039;-74
2023/06/10 00:19:29;;;;;;;15.18;11.93;;;;;;;20.55;71.38;101407.94;5072745;28;20490;-73
2023/06/10 00:21:58;;;;;;;15.98;12.05;;;;;;;20.49;71.49;101414.78;5070372;28;20033;-73
2023/06/10 00:24:23;;;;;;;16.70;12.38;;;;;;;20.34;72.36;101410.81;5057561;28;20133;-74
2023/06/10 00:26:49;;;;;;;20.50;12.68;;;;;;;20.25;72.09;101406.28;5059202;28;20040;-74
2023/06/10 00:29:15;;;;;;;22.70;12.35;;;;;;;20.09;72.81;101401.47;5056633;28;20043;-73
2023/06/10 00:31:40;;;;;;;19.25;11.45;;;;;;;20.14;72.17;101404.59;5071513;28;20044;-75
2023/06/10 00:34:09;;;;;;;18.85;12.23;;;;;;;20.14;72.00;101410.00;5071787;28;20040;-74
2023/06/10 00:36:35;;;;;;;20.23;12.75;;;;;;;20.15;72.07;101415.28;5049227;28;20044;-74
2023/06/10 00:39:01;;;;;;;16.33;12.38;;;;;;;20.14;71.52;101412.72;5060439;28;20478;-73
2023/06/10 00:41:27;;;;;;;17.35;11.95;;;;;;;20.15;70.72;101406.28;5042781;28;20051;-72
2023/06/10 00:43:52;;;;;;;15.48;11.02;;;;;;;20.18;70.79;101406.88;5027796;28;20044;-74
2023/06/10 00:46:18;;;;;;;12.35;11.00;;;;;;;20.08;70.84;101413.28;5056090;28;20874;-73
2023/06/10 00:48:45;;;;;;;15.00;10.45;;;;;;;20.09;70.43;101415.84;5046568;28;20029;-75
2023/06/10 00:51:10;;;;;;;13.10;9.88;;;;;;;20.12;70.04;101420.97;5061686;28;20029;-74
2023/06/10 00:53:40;;;;;;;13.48;10.07;;;;;;;20.22;69.15;101412.81;5047613;28;20978;-74
2023/06/10 00:56:06;;;;;;;12.90;10.32;;;;;;;20.29;68.85;101416.66;5048691;28;20120;-72
2023/06/10 00:58:35;;;;;;;17.15;10.35;;;;;;;20.16;68.55;101419.69;5035118;28;20164;-74
2023/06/10 01:01:01;;;;;;;18.60;10.65;;;;;;;20.26;68.60;101422.38;5056473;28;20037;-73
2023/06/10 01:03:27;;;;;;;12.45;9.32;;;;;;;20.15;68.63;101422.53;5059805;28;20044;-74
2023/06/10 01:06:26;;;;;;;12.02;8.98;;;;;;;20.13;68.25;101419.09;5035804;28;20033;-72
2023/06/10 01:09:49;;;;;;;14.90;10.10;;;;;;;20.02;68.81;101421.97;5067969;28;20041;-74
2023/06/10 01:12:48;;;;;;;16.67;9.45;;;;;;;20.02;69.06;101414.72;4958677;28;20134;-73
2023/06/10 01:15:15;;;;;;;16.70;10.35;;;;;;;20.02;69.02;101422.84;4973557;28;20059;-72
2023/06/10 01:18:01;;;;;;;17.38;9.95;;;;;;;19.98;69.21;101415.13;4979316;28;20065;-73
2023/06/10 01:20:31;;;;;;;15.15;10.80;;;;;;;20.02;69.36;101422.84;4976998;28;20633;-75
2023/06/10 01:23:02;;;;;;;19.15;11.82;;;;;;;19.98;69.60;101426.84;4961016;28;20113;-75
2023/06/10 01:25:29;;;;;;;12.40;9.52;;;;;;;19.98;69.96;101418.72;4976861;28;20054;-75
2023/06/10 01:27:59;;;;;;;13.45;10.23;;;;;;;19.95;69.47;101421.72;4979886;28;20042;-73
2023/06/10 01:30:30;;;;;;;13.15;9.68;;;;;;;19.92;70.87;101430.97;4979717;28;20083;-73
2023/06/10 01:32:59;;;;;;;14.18;10.52;;;;;;;19.84;72.78;101425.44;4980136;28;20042;-74
2023/06/10 01:35:26;;;;;;;14.65;10.30;;;;;;;19.71;74.74;101430.25;4975105;28;20054;-74
2023/06/10 01:37:54;;;;;;;14.68;10.60;;;;;;;19.63;75.57;101433.69;4979509;28;20093;-73
2023/06/10 01:40:20;;;;;;;14.85;10.55;;;;;;;19.65;74.01;101431.69;4989331;28;20054;-73
2023/06/10 01:42:46;;;;;;;14.85;10.43;;;;;;;19.62;74.36;101429.25;5009858;28;20469;-73
2023/06/10 01:45:12;;;;;;;17.33;10.10;;;;;;;19.63;73.94;101432.84;5044970;28;20962;-74
2023/06/10 01:47:39;;;;;;;15.98;10.75;;;;;;;19.56;74.49;101429.78;5064017;28;20522;-74
2023/06/10 01:50:06;;;;;;;14.48;10.57;;;;;;;19.51;74.83;101434.78;5052684;28;20036;-72
2023/06/10 01:52:35;;;;;;;15.23;11.38;;;;;;;19.49;75.04;101423.25;5043542;28;20037;-73
2023/06/10 01:55:00;;;;;;;15.93;11.18;;;;;;;19.41;nan;101428.50;5053326;28;20043;-73
2023/06/10 01:57:26;;;;;;;13.88;10.38;;;;;;;19.39;76.12;101428.66;5064432;28;20036;-73
2023/06/10 01:59:52;;;;;;;15.27;11.30;;;;;;;19.32;76.98;101432.88;5037862;28;20029;-73
2023/06/10 02:02:18;;;;;;;14.88;11.23;;;;;;;19.21;76.49;101429.44;5060044;28;20032;-74
2023/06/10 02:04:43;;;;;;;14.05;11.10;;;;;;;19.22;76.47;101431.16;5070256;28;20515;-72
2023/06/10 02:07:12;;;;;;;17.83;11.20;;;;;;;19.09;76.93;101437.69;5059452;28;20501;-75
2023/06/10 02:09:40;;;;;;;19.90;11.98;;;;;;;19.01;77.17;101432.09;5068177;28;20032;-75
2023/06/10 02:12:07;;;;;;;16.08;10.60;;;;;;;18.95;77.61;101426.41;5042578;28;20112;-75
2023/06/10 02:14:34;;;;;;;13.00;10.30;;;;;;;18.87;78.33;101425.22;5044826;28;20572;-76
2023/06/10 02:17:00;;;;;;;16.50;11.13;;;;;;;18.81;78.45;101425.78;5072006;28;20036;-73
2023/06/10 02:19:27;;;;;;;15.80;9.98;;;;;;;18.82;78.82;101432.03;5055190;28;20041;-75
2023/06/10 02:21:53;;;;;;;14.48;10.27;;;;;;;18.86;77.96;101431.63;5078255;28;20028;-75
2023/06/10 02:24:18;;;;;;;14.55;10.70;;;;;;;18.96;77.19;101430.81;5062924;28;20045;-75
2023/06/10 02:26:45;;;;;;;17.23;10.68;;;;;;;18.95;77.58;101434.50;5074794;28;20041;-75
2023/06/10 02:29:10;;;;;;;13.52;10.25;;;;;;;18.97;77.00;101429.81;5042624;28;20025;-74
2023/06/10 02:31:37;;;;;;;18.25;11.57;;;;;;;18.93;76.74;101434.66;5060358;28;20572;-74
2023/06/10 02:34:05;;;;;;;17.45;10.32;;;;;;;18.83;78.10;101434.63;5042868;28;20341;-76
2023/06/10 02:36:31;;;;;;;13.00;11.15;;;;;;;18.82;78.11;101432.03;5069196;28;20777;-75
2023/06/10 02:38:57;;;;;;;14.77;9.77;;;;;;;18.86;78.06;101433.47;5072759;28;20048;-75
2023/06/10 02:41:23;;;;;;;20.10;10.43;;;;;;;18.91;77.53;101435.75;5048058;28;20028;-71
2023/06/10 02:43:50;;;;;;;16.58;10.30;;;;;;;18.83;77.69;101434.63;5043201;28;20049;-73
2023/06/10 02:46:16;;;;;;;18.48;10.55;;;;;;;18.76;79.35;101441.53;5049673;28;20024;-74
2023/06/10 02:48:46;;;;;;;18.33;9.63;;;;;;;18.72;79.44;101437.38;5027753;28;20075;-72
2023/06/10 02:51:16;;;;;;;13.80;9.95;;;;;;;18.72;78.99;101440.09;5046723;28;20362;-73
2023/06/10 02:53:46;;;;;;;14.77;10.45;;;;;;;18.61;80.43;101440.16;5059990;28;20036;-73
2023/06/10 02:56:15;;;;;;;14.25;9.80;;;;;;;18.74;79.29;101439.97;5051627;28;20033;-73
2023/06/10 02:58:41;;;;;;;14.18;9.13;;;;;;;18.54;81.66;101447.09;5052844;28;20050;-73
2023/06/10 03:01:10;;;;;;;16.60;9.73;;;;;;;18.41;82.58;101435.63;5053469;28;20110;-72
2023/06/10 03:03:46;;;;;;;14.35;10.55;;;;;;;18.34;82.67;101444.28;5060488;28;20041;-73
2023/06/10 03:06:15;;;;;;;19.08;9.93;;;;;;;18.40;82.38;101447.44;5053994;28;20025;-72
2023/06/10 03:08:41;;;;;;;14.45;9.95;;;;;;;18.25;84.17;101444.22;5050059;28;20060;-72
2023/06/10 03:11:11;;;;;;;17.63;10.75;;;;;;;18.38;83.65;101452.97;5029446;28;20028;-72
2023/06/10 03:13:41;;;;;;;15.35;10.02;;;;;;;18.27;84.53;101453.91;5053265;28;20072;-72
2023/06/10 03:16:12;;;;;;;19.67;9.80;;;;;;;18.08;85.94;101449.22;5054238;28;20119;-72
2023/06/10 03:18:40;;;;;;;18.45;10.35;;;;;;;18.15;86.45;101454.94;5036142;28;20033;-73
2023/06/10 03:21:05;;;;;;;13.60;10.38;;;;;;;18.20;86.84;101462.66;5051636;28;20037;-73
2023/06/10 03:23:33;;;;;;;16.23;9.73;;;;;;;18.28;86.12;101452.91;5052990;28;20123;-73
2023/06/10 03:26:00;;;;;;;14.35;9.30;;;;;;;18.33;85.83;101457.91;5025997;28;20099;-74
2023/06/10 03:28:26;;;;;;;21.17;9.95;;;;;;;18.44;85.17;101457.84;5046289;28;20429;-74
2023/06/10 03:30:52;;;;;;;15.57;10.10;;;;;;;18.69;83.75;101451.19;5051842;28;20684;-74
2023/06/10 03:33:18;;;;;;;18.02;9.15;;;;;;;18.76;83.06;101451.50;5038876;28;21064;-74
2023/06/10 03:35:45;;;;;;;20.08;10.40;;;;;;;18.86;82.89;101452.38;5045629;28;20103;-75
2023/06/10 03:38:11;;;;;;;14.75;10.00;;;;;;;18.93;82.42;101458.97;5039326;28;20070;-75
2023/06/10 03:40:40;;;;;;;17.02;9.05;;;;;;;19.17;81.46;101449.66;5035369;28;20847;-75
2023/06/10 03:43:08;;;;;;;21.05;9.00;;;;;;;19.29;80.83;101454.81;5052188;28;20044;-74
2023/06/10 03:45:36;;;;;;;15.20;9.60;;;;;;;19.47;79.51;101459.53;5024252;28;20029;-73
2023/06/10 03:48:03;;;;;;;14.30;9.52;;;;;;;19.57;79.37;101450.44;5033298;28;20035;-74
2023/06/10 03:50:38;;;;;;;19.67;9.55;;;;;;;20.03;77.07;101454.34;5051441;28;20056;-73
2023/06/10 03:53:10;;;;;;;17.58;9.90;;;;;;;20.25;75.44;101458.59;5045929;28;20121;-74
2023/06/10 03:55:41;;;;;;;14.20;9.68;;;;;;;20.41;74.69;101468.81;5031668;28;20033;-73
2023/06/10 03:58:13;;;;;;;14.95;9.63;;;;;;;20.89;72.64;101455.16;5049648;28;20041;-74
2023/06/10 04:00:45;;;;;;;14.00;8.80;;;;;;;21.16;70.89;101459.72;5063449;28;20048;-73
2023/06/10 04:03:14;;;;;;;18.25;9.73;;;;;;;21.33;69.45;101449.09;5068366;28;20055;-75
2023/06/10 04:05:44;;;;;;;14.18;9.43;;;;;;;21.49;69.97;101459.25;5034677;28;20075;-75
2023/06/10 04:08:10;;;;;;;18.58;10.27;;;;;;;21.48;69.07;101454.84;5057870;28;20402;-75
2023/06/10 04:10:36;;;;;;;16.83;10.05;;;;;;;22.37;66.90;101457.56;5047999;28;20028;-75
2023/06/10 04:13:02;;;;;;;12.02;8.95;;;;;;;22.68;63.89;101466.06;5051335;28;20037;-75
2023/06/10 04:15:33;;;;;;;13.50;9.17;;;;;;;23.11;62.75;101456.97;5042010;28;21123;-74
2023/06/10 04:18:01;;;;;;;15.25;9.90;;;;;;;22.86;62.82;101453.25;5057079;28;21117;-75
2023/06/10 04:20:27;;;;;;;15.77;9.27;;;;;;;22.93;63.53;101461.66;5052001;28;20252;-74
2023/06/10 04:22:52;;;;;;;13.13;9.75;;;;;;;23.51;61.21;101469.03;5061784;28;20033;-73
2023/06/10 04:25:19;;;;;;;15.98;9.15;;;;;;;23.08;61.40;101465.47;5051742;28;20037;-74
2023/06/10 04:27:45;;;;;;;12.63;8.63;;;;;;;23.34;61.50;101468.09;5021812;28;20183;-73
2023/06/10 04:30:11;;;;;;;11.93;9.38;;;;;;;23.22;60.89;101472.16;5061939;28;20063;-75
2023/06/10 04:32:39;;;;;;;14.88;8.82;;;;;;;23.62;59.69;101470.56;5044982;28;20076;-74
2023/06/10 04:35:13;;;;;;;12.13;9.18;;;;;;;23.58;59.28;101475.50;5031333;28;20102;-74
2023/06/10 04:37:40;;;;;;;15.02;8.98;;;;;;;23.93;59.21;101478.97;5052646;28;20167;-75
2023/06/10 04:40:10;;;;;;;18.13;8.93;;;;;;;24.13;58.78;101476.78;5066520;28;20056;-74
2023/06/10 04:42:36;;;;;;;19.35;9.60;;;;;;;23.96;58.81;101476.78;5043721;28;20032;-73
2023/06/10 04:45:03;;;;;;;14.48;9.55;;;;;;;23.62;60.15;101481.47;5060732;28;20051;-75
2023/06/10 04:47:32;;;;;;;20.02;9.15;;;;;;;23.88;58.82;101479.50;5061923;28;20044;-73
2023/06/10 04:49:58;;;;;;;14.90;9.13;;;;;;;23.94;57.76;101480.69;5044430;28;20805;-74
2023/06/10 04:52:24;;;;;;;13.65;9.25;;;;;;;23.96;58.92;101476.78;5064238;28;20048;-74
2023/06/10 04:54:50;;;;;;;13.63;8.95;;;;;;;24.53;58.14;101473.19;5045460;28;20111;-74
2023/06/10 04:57:15;;;;;;;16.77;8.85;;;;;;;24.80;56.95;101474.69;5055213;28;20042;-74
2023/06/10 04:59:41;;;;;;;13.20;9.25;;;;;;;24.77;56.13;101478.59;5060766;28;20037;-74
2023/06/10 05:02:08;;;;;;;11.38;8.65;;;;;;;24.84;56.75;101483.34;5063830;28;20118;-74
2023/06/10 05:04:36;;;;;;;14.38;9.48;;;;;;;24.52;56.85;101482.41;5059120;28;20049;-74
2023/06/10 05:07:01;;;;;;;15.50;9.52;;;;;;;24.09;59.20;101484.44;5061914;28;20157;-74
2023/06/10 05:09:27;;;;;;;13.48;8.55;;;;;;;25.13;57.58;101483.63;5060761;28;20240;-73
2023/06/10 05:11:53;;;;;;;12.82;9.05;;;;;;;25.34;55.11;101479.44;5059425;28;20114;-74
2023/06/10 05:14:20;;;;;;;14.48;8.70;;;;;;;25.01;55.04;101482.28;5055860;28;20029;-74
2023/06/10 05:16:47;;;;;;;14.13;8.88;;;;;;;24.72;55.54;101478.28;5064116;28;20091;-75
2023/06/10 05:19:13;;;;;;;16.55;9.20;;;;;;;25.12;54.85;101483.81;5062755;28;20094;-74
2023/06/10 05:21:40;;;;;;;12.68;8.30;;;;;;;25.48;54.64;101473.22;5054051;28;20067;-75
2023/06/10 05:24:07;;;;;;;13.00;8.98;;;;;;;25.74;53.80;101476.47;5061324;28;20048;-74
2023/06/10 05:26:36;;;;;;;12.00;8.13;;;;;;;26.01;53.27;101477.84;5028660;28;20048;-74
2023/06/10 05:29:04;;;;;;;13.38;8.77;;;;;;;25.10;55.97;101480.41;5056982;28;20048;-75
2023/06/10 05:31:30;;;;;;;17.55;8.30;;;;;;;25.07;54.76;101478.03;5050746;28;20151;-74
2023/06/10 05:33:55;;;;;;;11.85;8.32;;;;;;;25.07;55.14;101478.03;5072649;28;20024;-73
2023/06/10 05:36:21;;;;;;;10.30;7.80;;;;;;;25.41;54.86;101481.28;5070439;28;20784;-73
2023/06/10 05:38:46;;;;;;;13.27;8.10;;;;;;;25.01;55.98;101485.03;5069962;28;20083;-74
2023/06/10 05:41:12;;;;;;;11.88;8.70;;;;;;;25.16;56.06;101482.44;5053529;28;20071;-73
2023/06/10 05:43:42;;;;;;;13.30;9.02;;;;;;;24.75;54.78;101487.97;5064135;28;20048;-74
2023/06/10 05:46:09;;;;;;;13.63;7.85;;;;;;;24.37;57.92;101490.44;5070867;28;20115;-74
2023/06/10 05:48:35;;;;;;;12.82;9.05;;;;;;;24.09;56.68;101487.16;5070327;28;20028;-73
2023/06/10 05:51:01;;;;;;;14.15;8.70;;;;;;;23.84;57.33;101488.16;5053855;28;20458;-73
2023/06/10 05:53:26;;;;;;;12.48;8.18;;;;;;;23.61;59.37;101491.50;5069857;28;20557;-72
2023/06/10 05:55:53;;;;;;;16.10;8.27;;;;;;;23.86;59.15;101497.88;5058402;28;20941;-73
2023/06/10 05:58:20;;;;;;;12.45;7.82;;;;;;;24.04;59.34;101493.13;5071203;28;20037;-73
2023/06/10 06:00:46;;;;;;;14.20;8.27;;;;;;;23.88;59.65;101501.28;5060031;28;20443;-73
2023/06/10 06:03:12;;;;;;;12.23;8.02;;;;;;;23.98;58.81;101492.97;5069046;28;20363;-73
2023/06/10 06:05:38;;;;;;;13.98;8.25;;;;;;;23.80;59.70;101490.41;5057115;28;20448;-74
2023/06/10 06:08:05;;;;;;;16.45;7.57;;;;;;;23.65;60.01;101495.63;5053616;28;20037;-74
2023/06/10 06:10:31;;;;;;;10.43;7.57;;;;;;;24.32;57.92;101495.53;5064632;28;20041;-73
2023/06/10 06:12:56;;;;;;;10.32;8.00;;;;;;;24.42;57.42;101500.84;5070168;28;20024;-72
2023/06/10 06:15:22;;;;;;;17.90;8.05;;;;;;;24.57;56.99;101490.09;5070410;28;20587;-74
2023/06/10 06:17:48;;;;;;;14.07;8.35;;;;;;;24.27;58.83;101492.47;5058514;28;20821;-72
2023/06/10 06:20:13;;;;;;;11.82;8.10;;;;;;;24.16;58.15;101490.94;5063324;28;20660;-73
2023/06/10 06:22:42;;;;;;;13.20;8.55;;;;;;;24.42;57.41;101488.06;5064017;28;20561;-73
2023/06/10 06:25:10;;;;;;;14.60;8.30;;;;;;;24.88;56.75;101496.47;5063049;28;20041;-74
2023/06/10 06:27:36;;;;;;;11.70;7.90;;;;;;;24.52;57.53;101493.31;5062371;28;20936;-74
2023/06/10 06:30:01;;;;;;;11.48;7.72;;;;;;;24.00;57.37;101494.50;5067317;28;20033;-75
2023/06/10 06:32:27;;;;;;;15.68;8.73;;;;;;;24.53;56.96;101497.75;5058677;28;20071;-76
2023/06/10 06:34:54;;;;;;;15.57;7.82;;;;;;;24.72;57.71;101494.66;5062076;28;20836;-75
2023/06/10 06:37:25;;;;;;;13.80;8.75;;;;;;;24.10;57.89;101488.88;5045085;28;20534;-73
2023/06/10 06:40:03;;;;;;;14.40;9.15;;;;;;;24.28;58.34;101496.88;5033581;28;20112;-72
2023/06/10 06:42:29;;;;;;;10.20;7.90;;;;;;;24.27;58.09;101501.47;5041522;28;20037;-72
2023/06/10 06:45:10;;;;;;;12.60;8.38;;;;;;;24.26;57.86;101501.66;5027050;28;20135;-72
2023/06/10 06:47:35;;;;;;;10.23;7.70;;;;;;;24.48;57.58;101497.41;5050379;28;20033;-72
2023/06/10 06:50:02;;;;;;;13.02;7.70;;;;;;;24.82;58.89;101505.38;5054755;28;20033;-71
2023/06/10 06:52:28;;;;;;;12.63;7.80;;;;;;;24.26;58.15;101504.41;5058080;28;20481;-71
2023/06/10 06:54:54;;;;;;;13.63;7.63;;;;;;;24.43;56.90;101507.97;5066023;28;20056;-73
2023/06/10 06:57:20;;;;;;;18.38;8.43;;;;;;;24.73;57.67;101509.13;5050793;28;20045;-74
2023/06/10 06:59:45;;;;;;;11.07;7.78;;;;;;;24.91;57.39;101508.94;5061392;28;20040;-72
2023/06/10 07:02:11;;;;;;;12.13;7.60;;;;;;;24.72;56.42;101499.25;5069309;28;20490;-73
2023/06/10 07:04:36;;;;;;;12.90;7.95;;;;;;;24.87;56.43;101504.84;5062797;28;20499;-73
2023/06/10 07:07:16;;;;;;;17.05;7.80;;;;;;;24.64;57.21;101512.91;5046368;28;20116;-73
2023/06/10 07:09:41;;;;;;;12.45;8.38;;;;;;;24.49;57.13;101508.13;5067790;28;20044;-72
2023/06/10 07:12:15;;;;;;;14.77;7.93;;;;;;;24.49;57.30;101523.66;5065988;28;20657;-73
2023/06/10 07:14:40;;;;;;;13.18;8.38;;;;;;;24.76;56.78;101514.25;5071592;28;20048;-74
2023/06/10 07:17:07;;;;;;;11.63;7.80;;;;;;;24.86;56.24;101517.66;5068596;28;20033;-73
2023/06/10 07:19:33;;;;;;;13.57;7.85;;;;;;;25.14;56.64;101518.09;5051273;28;20040;-73
2023/06/10 07:21:58;;;;;;;17.42;7.68;;;;;;;25.08;56.17;101515.22;5063636;28;20192;-73
2023/06/10 07:24:24;;;;;;;14.48;8.82;;;;;;;25.31;56.11;101516.16;5068938;28;20033;-73
2023/06/10 07:26:50;;;;;;;12.98;8.07;;;;;;;25.41;55.27;101505.88;5065824;28;20438;-72
2023/06/10 07:29:16;;;;;;;14.80;8.85;;;;;;;25.04;55.67;101511.94;5060666;28;20143;-73
2023/06/10 07:31:42;;;;;;;10.55;7.68;;;;;;;24.98;58.18;101512.66;5072617;28;20362;-73
2023/06/10 07:34:10;;;;;;;13.43;8.30;;;;;;;24.99;56.24;101511.63;5045899;28;20491;-75
2023/06/10 07:36:36;;;;;;;10.05;7.53;;;;;;;25.37;57.73;101509.97;5068049;28;20147;-73
2023/06/10 07:39:02;;;;;;;14.82;8.07;;;;;;;25.45;56.30;101512.69;5068960;28;20048;-74
2023/06/10 07:41:28;;;;;;;14.48;8.77;;;;;;;25.45;55.13;101514.53;5072978;28;20108;-73
2023/06/10 07:43:56;;;;;;;15.35;7.80;;;;;;;25.80;54.49;101510.44;5068580;28;20336;-74
2023/06/10 07:46:23;;;;;;;12.05;7.75;;;;;;;25.39;55.63;101509.78;5054282;28;20103;-73
2023/06/10 07:48:49;;;;;;;10.13;8.18;;;;;;;25.74;55.73;101520.19;5068324;28;20134;-74
2023/06/10 07:51:16;;;;;;;16.50;9.27;;;;;;;25.58;53.86;101518.41;5051659;28;20750;-73
2023/06/10 07:53:42;;;;;;;17.00;8.75;;;;;;;25.49;54.01;101516.75;5029354;28;20033;-72
2023/06/10 07:56:10;;;;;;;12.00;7.68;;;;;;;25.63;54.12;101514.28;5042147;28;20029;-73
2023/06/10 07:58:35;;;;;;;13.35;8.27;;;;;;;25.68;53.36;101511.88;5065887;28;20044;-76
2023/06/10 08:01:01;;;;;;;11.40;7.80;;;;;;;25.52;54.92;101519.13;5051422;28;20903;-74
2023/06/10 08:03:26;;;;;;;14.02;8.27;;;;;;;25.69;53.65;101517.16;5029598;28;20056;-74
2023/06/10 08:05:52;;;;;;;10.15;8.02;;;;;;;25.68;54.79;101517.34;5062821;28;20086;-75
2023/06/10 08:08:17;;;;;;;15.95;7.63;;;;;;;25.42;54.74;101523.97;5066099;28;20556;-74
2023/06/10 08:10:43;;;;;;;11.85;7.60;;;;;;;26.00;55.47;101508.09;5066624;28;20145;-74
2023/06/10 08:13:10;;;;;;;14.00;7.70;;;;;;;25.95;53.44;101508.63;5046913;28;20064;-73
2023/06/10 08:15:36;;;;;;;19.73;9.13;;;;;;;25.89;54.39;101509.38;5050170;28;20041;-72
2023/06/10 08:18:02;;;;;;;17.15;8.45;;;;;;;25.91;54.15;101504.59;5067855;28;20054;-74
2023/06/10 08:20:27;;;;;;;11.35;7.45;;;;;;;26.20;53.60;101509.28;5067526;28;20231;-74
2023/06/10 08:22:54;;;;;;;13.63;8.20;;;;;;;26.43;53.26;101509.31;5068050;28;20036;-74
2023/06/10 08:25:21;;;;;;;12.35;8.20;;;;;;;26.65;52.72;101510.28;5069842;28;20526;-74
2023/06/10 08:27:47;;;;;;;11.45;7.95;;;;;;;26.69;52.33;101508.03;5069567;28;21115;-73
2023/06/10 08:30:13;;;;;;;14.30;7.50;;;;;;;26.45;51.53;101509.13;5070080;28;20032;-74
2023/06/10 08:32:40;;;;;;;15.32;7.43;;;;;;;26.54;53.27;101511.59;5065583;28;20116;-73
2023/06/10 08:35:06;;;;;;;14.40;7.82;;;;;;;26.49;54.26;101514.03;5069295;28;20134;-73
2023/06/10 08:37:32;;;;;;;14.60;7.85;;;;;;;26.92;50.96;101508.81;5058492;28;20063;-75
2023/06/10 08:39:57;;;;;;;11.65;6.88;;;;;;;27.00;52.97;101507.84;5031550;28;20029;-73
2023/06/10 08:42:33;;;;;;;17.48;7.07;;;;;;;26.94;50.36;101508.63;5064346;28;20040;-74
2023/06/10 08:45:02;;;;;;;12.23;6.72;;;;;;;27.24;51.28;101507.59;5068402;28;20110;-74
2023/06/10 08:47:35;;;;;;;12.27;7.00;;;;;;;26.65;51.71;101515.75;5062699;28;20040;-74
2023/06/10 08:50:03;;;;;;;11.25;7.13;;;;;;;26.38;51.20;101506.25;5044241;28;20025;-73
2023/06/10 08:52:37;;;;;;;11.10;7.25;;;;;;;26.70;51.41;101509.72;5044054;28;20037;-73
2023/06/10 08:55:12;;;;;;;13.40;6.97;;;;;;;27.19;50.91;101506.47;5056326;28;20110;-74
2023/06/10 08:57:40;;;;;;;15.55;8.00;;;;;;;26.52;52.20;101512.84;5064136;28;20106;-74
2023/06/10 09:00:10;;;;;;;17.60;8.50;;;;;;;26.95;52.24;101507.56;5063867;28;20036;-74
2023/06/10 09:02:36;;;;;;;11.65;6.22;;;;;;;26.74;50.59;101500.13;5067219;28;20616;-74
2023/06/10 09:05:02;;;;;;;14.52;6.60;;;;;;;26.94;50.63;101503.16;5042563;28;20041;-73
2023/06/10 09:07:31;;;;;;;12.88;6.45;;;;;;;27.25;51.06;101503.81;5065488;28;20463;-74
2023/06/10 09:09:59;;;;;;;13.20;6.40;;;;;;;27.36;50.02;101502.47;5064816;28;21143;-73
2023/06/10 09:12:24;;;;;;;8.70;6.22;;;;;;;27.53;50.09;101503.97;5061867;28;20033;-73
2023/06/10 09:14:50;;;;;;;16.77;7.10;;;;;;;27.26;48.80;101513.75;5044506;28;20323;-73
2023/06/10 09:17:17;;;;;;;15.00;6.65;;;;;;;27.60;47.98;101495.81;5057625;28;20029;-73
2023/06/10 09:19:43;;;;;;;10.57;6.07;;;;;;;27.68;49.02;101500.34;5066860;28;20024;-73
2023/06/10 09:22:11;;;;;;;11.93;6.63;;;;;;;27.44;50.86;101501.53;5049228;28;20063;-74
2023/06/10 09:24:36;;;;;;;12.48;7.40;;;;;;;27.48;48.28;101502.84;5045290;28;20048;-74
2023/06/10 09:27:11;;;;;;;11.88;7.03;;;;;;;27.28;48.07;101499.88;5064298;28;20840;-74
2023/06/10 09:29:54;;;;;;;10.30;6.68;;;;;;;27.63;48.32;101507.25;5046553;28;20059;-73
2023/06/10 09:32:20;;;;;;;9.27;6.32;;;;;;;28.07;47.64;101500.78;5054068;28;20068;-74
2023/06/10 09:34:46;;;;;;;10.57;6.75;;;;;;;27.75;46.97;101506.75;5057713;28;20567;-74
2023/06/10 09:37:13;;;;;;;11.35;6.80;;;;;;;27.33;48.23;101519.31;5064779;28;20037;-74
2023/06/10 09:39:41;;;;;;;12.52;6.53;;;;;;;27.63;47.54;101504.50;5066991;28;20036;-73
2023/06/10 09:42:18;;;;;;;12.63;7.05;;;;;;;27.89;48.24;101494.91;5048485;28;20044;-73
2023/06/10 09:44:52;;;;;;;10.60;6.25;;;;;;;27.99;47.42;101492.69;5058345;28;20494;-74
2023/06/10 09:47:22;;;;;;;11.55;6.78;;;;;;;27.98;47.84;101498.38;5044599;28;20923;-74
2023/06/10 09:49:54;;;;;;;10.25;6.53;;;;;;;28.01;47.63;101495.22;5059653;28;20032;-74
2023/06/10 09:52:29;;;;;;;9.52;6.18;;;;;;;28.09;46.23;101489.63;5064507;28;20035;-73
2023/06/10 09:55:01;;;;;;;11.95;5.80;;;;;;;28.26;46.92;101501.16;5061979;28;20493;-74
2023/06/10 09:57:32;;;;;;;10.48;5.97;;;;;;;27.85;45.69;101496.34;5064516;28;20518;-72
2023/06/10 09:59:58;;;;;;;8.85;5.45;;;;;;;28.00;47.46;101493.53;5051696;28;20033;-74
2023/06/10 10:02:23;;;;;;;13.95;6.60;;;;;;;27.72;46.86;101496.22;5068469;28;20973;-74
2023/06/10 10:04:49;;;;;;;12.05;5.68;;;;;;;28.06;47.73;101485.38;5069472;28;20723;-73
2023/06/10 10:07:15;;;;;;;10.60;6.70;;;;;;;28.30;46.18;101486.84;5032666;28;20040;-74
2023/06/10 10:09:42;;;;;;;8.60;6.00;;;;;;;28.31;44.74;101493.19;5062373;28;20140;-74
2023/06/10 10:12:12;;;;;;;8.35;5.75;;;;;;;28.19;44.53;101489.28;5068670;28;20029;-74
2023/06/10 10:14:45;;;;;;;9.27;5.73;;;;;;;28.33;45.05;101488.34;5068284;28;20036;-73
2023/06/10 10:17:11;;;;;;;8.15;5.32;;;;;;;28.36;44.34;101483.34;5065742;28;20036;-73
2023/06/10 10:19:47;;;;;;;9.27;5.60;;;;;;;28.36;43.41;101491.56;5049763;28;20041;-74
2023/06/10 10:22:19;;;;;;;8.48;5.75;;;;;;;28.50;43.88;101475.22;5060192;28;20062;-73
2023/06/10 10:24:57;;;;;;;10.25;5.28;;;;;;;28.22;42.72;101478.78;5070887;28;21094;-74
2023/06/10 10:27:31;;;;;;;13.80;5.50;;;;;;;28.18;46.06;101482.97;5060634;28;20037;-72
2023/06/10 10:29:58;;;;;;;8.68;5.25;;;;;;;28.33;41.73;101481.00;5063819;28;20048;-74
2023/06/10 10:32:34;;;;;;;17.38;5.97;;;;;;;28.55;44.15;101481.81;5050742;28;20040;-74
2023/06/10 10:35:08;;;;;;;8.63;5.10;;;;;;;28.70;42.74;101480.84;5067733;28;20036;-74
2023/06/10 10:37:35;;;;;;;11.15;6.05;;;;;;;28.73;41.87;101470.31;5066583;28;20044;-73
2023/06/10 10:40:03;;;;;;;19.30;5.40;;;;;;;28.35;41.96;101475.31;5052790;28;20036;-74
2023/06/10 10:42:30;;;;;;;10.70;5.32;;;;;;;28.30;40.75;101478.63;5068072;28;20032;-75
2023/06/10 10:44:56;;;;;;;9.20;5.35;;;;;;;28.45;41.89;101480.47;5058604;28;20045;-73
2023/06/10 10:47:25;;;;;;;9.43;5.20;;;;;;;28.69;42.03;101476.41;5069888;28;21258;-74
2023/06/10 10:49:56;;;;;;;12.93;5.60;;;;;;;28.72;41.42;101460.41;5065178;28;20172;-74
2023/06/10 10:52:21;;;;;;;8.03;5.23;;;;;;;28.51;41.57;101472.25;5062951;28;20045;-78
2023/06/10 10:54:47;;;;;;;11.02;5.70;;;;;;;28.87;40.56;101461.13;5064346;28;20791;-75
2023/06/10 10:57:14;;;;;;;9.82;5.97;;;;;;;28.79;39.48;101452.19;5075465;28;20063;-77
2023/06/10 10:59:49;;;;;;;9.73;5.93;;;;;;;28.86;40.71;101466.78;5075627;28;20032;-78
2023/06/10 11:02:39;;;;;;;23.88;6.85;;;;;;;28.93;39.07;101464.94;5074840;28;20040;-77
2023/06/10 11:05:10;;;;;;;6.85;5.25;;;;;;;29.23;40.51;101453.72;5036909;28;20075;-77
2023/06/10 11:07:36;;;;;;;8.18;5.35;;;;;;;29.36;40.98;101449.09;5057524;28;20146;-77
2023/06/10 11:10:11;;;;;;;13.23;5.88;;;;;;;29.03;41.25;101454.47;5073707;28;20036;-80
2023/06/10 11:12:46;;;;;;;10.68;5.60;;;;;;;28.99;39.84;101449.59;5054101;28;20099;-77
2023/06/10 11:15:12;;;;;;;10.65;5.70;;;;;;;28.80;38.93;101449.22;5068718;28;20029;-76
2023/06/10 11:18:17;;;;;;;9.65;6.03;;;;;;;29.29;39.72;101444.63;5057744;28;20187;-77
2023/06/10 11:20:48;;;;;;;7.97;5.20;;;;;;;29.51;38.81;101448.09;5069312;28;20159;-78
2023/06/10 11:23:29;;;;;;;9.10;5.60;;;;;;;29.52;37.30;101442.41;5067654;28;20037;-74